Time;durP1;ratioP1;P1;durP2;ratioP2;P2;SDS_P1;SDS_P2;PMS_P1;PMS_P2;Temp;Humidity;BMP_temperature;BMP_pressure;BME280_temperature;BME280_humidity;BME280_pressure;Samples;Min_cycle;Max_cycle;Signal;HPM_P1;HPM_P2
2021/11/26 00:02:18;;;;;;;37.72;12.27;;;;;;;-2.11;100.00;94477.63;5030140;28;20041;-76
2021/11/26 00:04:45;;;;;;;40.33;12.43;;;;;;;-2.09;100.00;94467.88;5000943;28;20038;-76
2021/11/26 00:07:11;;;;;;;35.53;12.02;;;;;;;-2.00;100.00;94471.72;5025698;28;20049;-76
2021/11/26 00:09:37;;;;;;;37.58;11.45;;;;;;;-1.93;100.00;94467.28;5027062;28;20041;-76
2021/11/26 00:12:03;;;;;;;38.70;11.60;;;;;;;-2.04;100.00;94465.44;5020334;28;20053;-75
2021/11/26 00:14:32;;;;;;;34.67;11.98;;;;;;;-2.15;100.00;94461.00;5000409;28;20045;-76
2021/11/26 00:16:58;;;;;;;37.75;11.90;;;;;;;-2.14;100.00;94465.94;5027812;28;20069;-76
2021/11/26 00:19:27;;;;;;;39.97;11.82;;;;;;;-2.01;100.00;94453.88;5026954;28;20037;-76
2021/11/26 00:21:54;;;;;;;41.50;12.68;;;;;;;-1.98;100.00;94454.25;5039147;28;20037;-76
2021/11/26 00:24:20;;;;;;;42.15;12.90;;;;;;;-1.96;100.00;94457.41;5008128;28;20049;-76
2021/11/26 00:26:47;;;;;;;38.80;12.13;;;;;;;-1.99;100.00;94473.31;5026170;28;20091;-75
2021/11/26 00:29:13;;;;;;;38.17;11.63;;;;;;;-1.97;100.00;94466.16;5024952;28;20132;-75
2021/11/26 00:31:41;;;;;;;38.42;12.25;;;;;;;-2.00;100.00;94464.00;5027429;28;20124;-76
2021/11/26 00:34:07;;;;;;;39.53;11.88;;;;;;;-2.05;100.00;94458.72;5031644;28;20518;-76
2021/11/26 00:36:33;;;;;;;39.00;11.50;;;;;;;-1.90;100.00;94460.13;5027714;28;20050;-76
2021/11/26 00:39:00;;;;;;;41.13;11.38;;;;;;;-1.87;100.00;94464.84;5009678;28;20049;-76
2021/11/26 00:41:26;;;;;;;40.72;11.60;;;;;;;-1.80;100.00;94460.41;5026228;28;20050;-76
2021/11/26 00:43:52;;;;;;;40.47;12.70;;;;;;;-1.90;100.00;94462.72;5009629;28;20080;-76
2021/11/26 00:46:18;;;;;;;39.83;12.57;;;;;;;-1.95;100.00;94455.63;5025059;28;20054;-76
2021/11/26 00:48:44;;;;;;;36.75;11.73;;;;;;;-2.01;100.00;94446.97;5033626;28;20044;-76
2021/11/26 00:51:10;;;;;;;35.65;10.93;;;;;;;-1.84;100.00;94454.09;5009399;28;20049;-76
2021/11/26 00:53:36;;;;;;;40.20;12.68;;;;;;;-1.88;100.00;94453.75;5023215;28;20042;-76
2021/11/26 00:56:03;;;;;;;44.45;12.80;;;;;;;-1.93;100.00;94446.66;5009407;28;20037;-76
2021/11/26 00:58:29;;;;;;;33.72;11.02;;;;;;;-1.87;100.00;94441.63;5023802;28;20107;-75
2021/11/26 01:00:55;;;;;;;39.63;11.82;;;;;;;-1.85;100.00;94437.03;5026659;28;20525;-76
2021/11/26 01:03:21;;;;;;;39.75;11.75;;;;;;;-1.95;100.00;94433.19;5026260;28;20172;-76
2021/11/26 01:05:48;;;;;;;35.50;10.65;;;;;;;-1.74;100.00;94433.72;5026922;28;20045;-76
2021/11/26 01:08:13;;;;;;;40.13;12.82;;;;;;;-1.78;100.00;94437.75;5025836;28;20130;-76
2021/11/26 01:10:40;;;;;;;37.90;12.13;;;;;;;-2.02;100.00;94432.50;5026784;28;20517;-76
2021/11/26 01:13:06;;;;;;;39.28;12.07;;;;;;;-1.89;100.00;94435.91;5009241;28;20551;-76
2021/11/26 01:15:33;;;;;;;35.13;11.40;;;;;;;-1.88;100.00;94432.31;5017242;28;20049;-76
2021/11/26 01:17:58;;;;;;;33.53;11.35;;;;;;;-1.93;100.00;94420.84;5011911;28;20045;-76
2021/11/26 01:20:27;;;;;;;35.88;11.57;;;;;;;-2.04;100.00;94419.03;5030391;28;20045;-76
2021/11/26 01:22:53;;;;;;;38.83;11.10;;;;;;;-1.92;100.00;94417.28;5029713;28;20041;-76
2021/11/26 01:25:20;;;;;;;46.05;12.15;;;;;;;-1.97;100.00;94416.38;5030115;28;20092;-76
2021/11/26 01:27:47;;;;;;;41.17;13.15;;;;;;;-2.05;100.00;94412.31;5002589;28;20073;-76
2021/11/26 01:32:48;;;;;;;44.90;12.85;;;;;;;-2.02;100.00;94406.72;5029351;28;20049;-76
2021/11/26 01:35:13;;;;;;;44.28;12.50;;;;;;;-1.87;100.00;94392.63;5014670;28;20052;-75
2021/11/26 01:37:39;;;;;;;46.67;12.82;;;;;;;-2.02;100.00;94396.41;5009208;28;20038;-76
2021/11/26 01:40:05;;;;;;;41.67;11.70;;;;;;;-2.02;100.00;94393.81;5019734;28;20140;-76
2021/11/26 01:42:31;;;;;;;42.22;12.35;;;;;;;-1.94;100.00;94398.69;5029350;28;20092;-76
2021/11/26 01:44:57;;;;;;;42.38;11.63;;;;;;;-2.07;100.00;94391.09;5029585;28;20670;-76
2021/11/26 01:47:23;;;;;;;35.80;11.27;;;;;;;-2.05;100.00;94385.72;5003924;28;20100;-76
2021/11/26 01:49:49;;;;;;;41.63;12.60;;;;;;;-2.02;100.00;94380.94;5025242;28;20053;-75
2021/11/26 01:52:15;;;;;;;40.13;12.00;;;;;;;-2.06;100.00;94379.00;5028999;28;20608;-76
2021/11/26 01:54:41;;;;;;;42.65;12.68;;;;;;;-2.05;100.00;94380.56;5031921;28;20080;-77
2021/11/26 01:57:06;;;;;;;42.30;12.52;;;;;;;-2.07;100.00;94370.47;5021963;28;20045;-76
2021/11/26 01:59:32;;;;;;;44.60;11.63;;;;;;;-1.98;100.00;94360.66;5023941;28;20069;-75
2021/11/26 02:01:58;;;;;;;37.15;12.93;;;;;;;-1.88;100.00;94365.28;5029339;28;20133;-75
2021/11/26 02:04:23;;;;;;;41.88;12.02;;;;;;;-1.94;100.00;94362.59;5029203;28;20657;-76
2021/11/26 02:06:49;;;;;;;47.85;13.25;;;;;;;-2.02;100.00;94352.56;5021957;28;20034;-76
2021/11/26 02:09:14;;;;;;;50.47;13.80;;;;;;;-2.13;100.00;94348.16;5011016;28;20046;-75
2021/11/26 02:11:40;;;;;;;50.03;13.90;;;;;;;-2.15;100.00;94345.00;5029866;28;20045;-76
2021/11/26 02:14:06;;;;;;;42.60;13.30;;;;;;;-1.80;100.00;94352.06;5027623;28;20037;-76
2021/11/26 02:16:48;;;;;;;37.20;11.32;;;;;;;-1.71;100.00;94350.78;5025217;28;20473;-76
2021/11/26 02:19:14;;;;;;;37.45;11.82;;;;;;;-1.96;100.00;94346.53;5025025;28;20479;-77
2021/11/26 02:21:41;;;;;;;46.47;13.45;;;;;;;-2.06;100.00;94348.84;5029615;28;20413;-77
2021/11/26 02:24:07;;;;;;;42.75;13.90;;;;;;;-2.08;100.00;94345.72;5030803;28;20037;-77
2021/11/26 02:26:42;;;;;;;44.83;12.43;;;;;;;-2.03;100.00;94345.81;5006164;28;20518;-76
2021/11/26 02:29:09;;;;;;;39.65;12.20;;;;;;;-1.81;100.00;94342.75;5027959;28;20060;-74
2021/11/26 02:31:35;;;;;;;43.00;11.32;;;;;;;-1.98;100.00;94334.88;5029543;28;20095;-77
2021/11/26 02:34:01;;;;;;;40.15;12.38;;;;;;;-2.04;100.00;94344.28;5009252;28;20442;-75
2021/11/26 02:36:26;;;;;;;41.35;12.48;;;;;;;-2.13;100.00;94343.00;5004043;28;20045;-75
2021/11/26 02:38:52;;;;;;;43.97;12.90;;;;;;;-1.85;100.00;94336.47;5027446;28;20584;-76
2021/11/26 02:41:17;;;;;;;39.60;11.13;;;;;;;-1.93;100.00;94328.03;5027826;28;20128;-76
2021/11/26 02:43:44;;;;;;;36.75;12.50;;;;;;;-1.75;100.00;94334.16;5028050;28;20120;-76
2021/11/26 02:46:09;;;;;;;35.28;10.82;;;;;;;-1.89;100.00;94327.63;5022655;28;20038;-76
2021/11/26 02:48:35;;;;;;;43.33;11.52;;;;;;;-2.05;100.00;94319.50;5010983;28;20048;-75
2021/11/26 02:51:00;;;;;;;33.42;11.48;;;;;;;-1.97;100.00;94316.63;5028740;28;20542;-76
2021/11/26 02:53:26;;;;;;;36.72;11.25;;;;;;;-1.74;100.00;94309.91;5027567;28;20044;-75
2021/11/26 02:55:52;;;;;;;38.03;10.77;;;;;;;-1.86;100.00;94309.13;5026924;28;20055;-76
2021/11/26 02:58:18;;;;;;;38.95;11.70;;;;;;;-1.88;100.00;94308.53;5025099;28;20131;-76
2021/11/26 03:00:46;;;;;;;39.63;11.73;;;;;;;-1.92;100.00;94293.50;5027775;28;20064;-76
2021/11/26 03:03:12;;;;;;;39.20;11.32;;;;;;;-1.88;100.00;94298.22;5027827;28;20052;-75
2021/11/26 03:05:38;;;;;;;39.33;11.23;;;;;;;-1.93;100.00;94281.63;5022742;28;20506;-76
2021/11/26 03:08:05;;;;;;;38.50;12.05;;;;;;;-1.86;100.00;94285.91;5029877;28;20073;-75
2021/11/26 03:10:30;;;;;;;40.20;11.73;;;;;;;-1.97;100.00;94270.19;5027653;28;20499;-75
2021/11/26 03:13:01;;;;;;;42.25;13.02;;;;;;;-1.78;100.00;94280.41;5026954;28;20096;-75
2021/11/26 03:15:28;;;;;;;40.38;11.75;;;;;;;-1.95;100.00;94283.66;5004745;28;20045;-77
2021/11/26 03:17:55;;;;;;;37.40;10.43;;;;;;;-1.76;100.00;94275.84;5023052;28;20037;-76
2021/11/26 03:20:22;;;;;;;32.35;10.65;;;;;;;-1.67;100.00;94274.47;5009969;28;20049;-76
2021/11/26 03:22:48;;;;;;;46.28;12.25;;;;;;;-2.04;100.00;94274.66;5026719;28;20052;-76
2021/11/26 03:25:15;;;;;;;41.85;11.98;;;;;;;-2.07;100.00;94280.25;5010286;28;20050;-76
2021/11/26 03:27:42;;;;;;;41.00;11.60;;;;;;;-2.00;100.00;94275.78;5022946;28;20411;-76
2021/11/26 03:30:08;;;;;;;43.88;12.27;;;;;;;-1.96;100.00;94266.59;5000505;28;20050;-75
2021/11/26 03:32:34;;;;;;;39.72;12.50;;;;;;;-1.95;100.00;94262.25;5011950;28;20044;-75
2021/11/26 03:35:00;;;;;;;41.28;12.50;;;;;;;-1.99;100.00;94251.56;5007251;28;20486;-76
2021/11/26 03:37:25;;;;;;;41.30;12.00;;;;;;;-1.98;100.00;94252.38;5009221;28;20038;-76
2021/11/26 03:39:51;;;;;;;43.00;12.07;;;;;;;-1.78;100.00;94242.53;5026300;28;20056;-76
2021/11/26 03:42:17;;;;;;;40.13;12.98;;;;;;;-1.76;100.00;94237.16;5026934;28;20057;-76
2021/11/26 03:44:42;;;;;;;40.22;12.18;;;;;;;-1.69;100.00;94235.25;5009355;28;20049;-75
2021/11/26 03:47:08;;;;;;;43.05;11.63;;;;;;;-1.74;100.00;94232.53;5000255;28;20053;-75
2021/11/26 03:49:34;;;;;;;42.25;12.77;;;;;;;-1.94;100.00;94214.81;5010645;28;20129;-76
2021/11/26 03:52:00;;;;;;;43.70;11.55;;;;;;;-1.80;100.00;94217.97;5009483;28;20049;-76
2021/11/26 03:54:25;;;;;;;40.80;11.65;;;;;;;-1.86;100.00;94218.88;5026013;28;20072;-76
2021/11/26 03:56:51;;;;;;;48.53;13.23;;;;;;;-2.10;100.00;94209.31;5025329;28;20041;-75
2021/11/26 03:59:16;;;;;;;43.35;13.02;;;;;;;-2.02;100.00;94210.00;5027086;28;20076;-75
2021/11/26 04:01:42;;;;;;;39.92;11.75;;;;;;;-1.98;100.00;94211.13;5026864;28;20073;-76
2021/11/26 04:04:07;;;;;;;39.28;10.88;;;;;;;-1.84;100.00;94212.47;5027368;28;20077;-76
2021/11/26 04:06:33;;;;;;;42.58;11.95;;;;;;;-1.81;100.00;94206.88;5008768;28;20049;-76
2021/11/26 04:08:58;;;;;;;40.58;12.00;;;;;;;-1.83;100.00;94208.09;5027207;28;20648;-75
2021/11/26 04:11:26;;;;;;;41.40;12.23;;;;;;;-1.98;100.00;94206.75;5041496;28;20465;-76
2021/11/26 04:13:52;;;;;;;46.80;13.23;;;;;;;-1.95;100.00;94201.13;5027383;28;20465;-75
2021/11/26 04:16:18;;;;;;;44.42;13.80;;;;;;;-2.05;100.00;94216.38;5018132;28;20061;-76
2021/11/26 04:18:44;;;;;;;43.63;12.43;;;;;;;-2.03;100.00;94223.88;5028004;28;20098;-76
2021/11/26 04:21:11;;;;;;;47.85;13.55;;;;;;;-1.92;100.00;94226.47;5027126;28;20044;-75
2021/11/26 04:23:37;;;;;;;48.80;12.82;;;;;;;-1.95;100.00;94226.91;5023380;28;20137;-76
2021/11/26 04:26:03;;;;;;;46.17;13.75;;;;;;;-2.04;100.00;94225.69;5024940;28;20143;-75
2021/11/26 04:28:29;;;;;;;55.60;14.27;;;;;;;-2.04;100.00;94217.94;5019871;28;20052;-76
2021/11/26 04:30:55;;;;;;;49.65;13.75;;;;;;;-2.07;100.00;94218.38;5027178;28;20049;-75
2021/11/26 04:33:21;;;;;;;49.80;13.57;;;;;;;-1.89;100.00;94214.16;5025959;28;20079;-75
2021/11/26 04:35:48;;;;;;;52.63;13.32;;;;;;;-2.04;100.00;94210.22;5001563;28;20749;-75
2021/11/26 04:38:16;;;;;;;50.05;13.77;;;;;;;-2.08;100.00;94211.66;5025578;28;20116;-75
2021/11/26 04:40:41;;;;;;;48.28;13.15;;;;;;;-1.96;100.00;94209.88;5030491;28;20048;-76
2021/11/26 04:43:07;;;;;;;58.33;14.68;;;;;;;-2.09;100.00;94210.09;5025939;28;20064;-75
2021/11/26 04:45:33;;;;;;;57.78;14.43;;;;;;;-2.14;100.00;94207.38;5018544;28;20029;-75
2021/11/26 04:47:59;;;;;;;58.78;13.63;;;;;;;-2.13;100.00;94208.94;5052015;28;20044;-75
2021/11/26 04:50:24;;;;;;;63.88;14.60;;;;;;;-2.06;100.00;94209.63;5058940;28;20045;-75
2021/11/26 04:52:50;;;;;;;57.85;15.05;;;;;;;-2.11;100.00;94206.97;5039892;28;20056;-75
2021/11/26 04:55:16;;;;;;;61.83;15.13;;;;;;;-2.16;100.00;94204.25;5031514;28;20030;-74
2021/11/26 04:57:43;;;;;;;67.32;14.55;;;;;;;-2.19;100.00;94199.53;5042353;28;20056;-74
2021/11/26 05:00:10;;;;;;;55.75;14.60;;;;;;;-2.18;100.00;94206.28;5029701;28;20041;-75
2021/11/26 05:02:36;;;;;;;50.80;14.60;;;;;;;-2.03;100.00;94193.72;5055002;28;20037;-75
2021/11/26 05:05:03;;;;;;;43.60;12.80;;;;;;;-1.99;100.00;94194.84;5056261;28;20025;-75
2021/11/26 05:07:28;;;;;;;57.58;13.55;;;;;;;-1.97;100.00;94182.53;5052189;28;20045;-75
2021/11/26 05:09:54;;;;;;;55.08;15.05;;;;;;;-1.95;100.00;94180.50;5025821;28;20484;-76
2021/11/26 05:12:20;;;;;;;60.97;15.68;;;;;;;-2.08;100.00;94180.72;5030478;28;20045;-76
2021/11/26 05:14:46;;;;;;;57.83;13.85;;;;;;;-2.09;100.00;94179.16;5029890;28;20459;-76
2021/11/26 05:17:11;;;;;;;68.15;15.50;;;;;;;-2.04;100.00;94179.28;5028036;28;20087;-75
2021/11/26 05:19:37;;;;;;;73.72;15.48;;;;;;;-2.17;100.00;94176.88;5030045;28;20041;-76
2021/11/26 05:22:03;;;;;;;66.70;15.27;;;;;;;-2.14;100.00;94171.28;5042577;28;20051;-76
2021/11/26 05:24:28;;;;;;;72.55;15.82;;;;;;;-2.11;100.00;94165.72;5019387;28;20499;-76
2021/11/26 05:26:54;;;;;;;58.63;14.73;;;;;;;-1.99;100.00;94163.13;5025582;28;20048;-76
2021/11/26 05:29:19;;;;;;;63.13;15.07;;;;;;;-1.93;100.00;94163.00;5008139;28;20535;-77
2021/11/26 05:31:45;;;;;;;65.70;15.00;;;;;;;-1.98;100.00;94164.72;5030720;28;20499;-75
2021/11/26 05:34:11;;;;;;;62.33;14.48;;;;;;;-2.06;100.00;94159.88;5002009;28;20041;-75
2021/11/26 05:36:37;;;;;;;58.22;13.43;;;;;;;-2.03;100.00;94167.16;5028230;28;20125;-77
2021/11/26 05:39:05;;;;;;;50.38;12.27;;;;;;;-1.99;100.00;94163.91;5028557;28;20454;-76
2021/11/26 05:41:31;;;;;;;60.42;14.73;;;;;;;-1.92;100.00;94174.91;5030730;28;20053;-76
2021/11/26 05:43:56;;;;;;;64.03;15.00;;;;;;;-1.88;100.00;94189.91;5010151;28;20080;-77
2021/11/26 05:46:22;;;;;;;58.25;15.82;;;;;;;-1.79;100.00;94178.28;5010896;28;20046;-75
2021/11/26 05:48:48;;;;;;;64.95;16.48;;;;;;;-1.93;100.00;94177.69;5030036;28;20045;-75
2021/11/26 05:51:13;;;;;;;55.40;15.00;;;;;;;-1.99;100.00;94174.22;5029990;28;20174;-76
2021/11/26 05:53:39;;;;;;;63.70;14.25;;;;;;;-1.98;100.00;94175.81;5016281;28;20069;-76
2021/11/26 05:56:05;;;;;;;61.80;15.35;;;;;;;-2.06;100.00;94173.53;5012206;28;20045;-77
2021/11/26 05:58:32;;;;;;;71.15;15.10;;;;;;;-2.03;100.00;94167.94;5017249;28;20045;-76
2021/11/26 06:00:58;;;;;;;67.55;14.98;;;;;;;-1.95;100.00;94165.03;5012245;28;20115;-77
2021/11/26 06:03:23;;;;;;;52.78;14.50;;;;;;;-1.94;100.00;94166.63;5029268;28;20487;-76
2021/11/26 06:05:49;;;;;;;50.80;14.38;;;;;;;-2.02;100.00;94159.19;5030355;28;20482;-76
2021/11/26 06:08:14;;;;;;;54.45;13.25;;;;;;;-2.03;100.00;94162.78;5017822;28;20056;-77
2021/11/26 06:10:40;;;;;;;52.50;14.05;;;;;;;-1.89;100.00;94152.28;5026555;28;20061;-76
2021/11/26 06:13:05;;;;;;;55.63;13.80;;;;;;;-2.00;100.00;94152.03;5031064;28;20037;-77
2021/11/26 06:15:31;;;;;;;52.72;13.88;;;;;;;-1.86;100.00;94152.59;5029895;28;20768;-76
2021/11/26 06:17:57;;;;;;;51.45;12.85;;;;;;;-1.95;100.00;94149.56;5027770;28;20041;-77
2021/11/26 06:20:23;;;;;;;57.38;12.60;;;;;;;-1.80;100.00;94140.59;5008329;28;20120;-77
2021/11/26 06:22:49;;;;;;;41.08;13.43;;;;;;;-2.02;100.00;94141.16;5029099;28;20458;-76
2021/11/26 06:25:17;;;;;;;44.97;12.90;;;;;;;-1.93;100.00;94142.38;5011325;28;20117;-77
2021/11/26 06:27:44;;;;;;;50.35;13.07;;;;;;;-1.87;100.00;94134.78;5022525;28;20053;-76
2021/11/26 06:30:11;;;;;;;53.92;14.15;;;;;;;-1.88;100.00;94139.16;5028554;28;20045;-76
2021/11/26 06:32:38;;;;;;;60.25;13.63;;;;;;;-1.89;100.00;94136.81;5011402;28;20747;-75
2021/11/26 06:35:04;;;;;;;41.65;12.50;;;;;;;-2.02;100.00;94127.50;5007025;28;20099;-77
2021/11/26 06:37:30;;;;;;;51.65;13.95;;;;;;;-1.98;100.00;94139.72;5028371;28;20037;-75
2021/11/26 06:39:55;;;;;;;52.33;13.90;;;;;;;-1.89;100.00;94126.47;5024883;28;20052;-76
2021/11/26 06:42:21;;;;;;;45.63;11.65;;;;;;;-1.96;100.00;94131.75;5010392;28;20033;-77
2021/11/26 06:44:47;;;;;;;40.30;11.77;;;;;;;-1.98;100.00;94129.41;5027962;28;20049;-74
2021/11/26 06:47:12;;;;;;;49.63;11.60;;;;;;;-2.04;100.00;94132.06;5027362;28;20041;-75
2021/11/26 06:49:38;;;;;;;33.70;10.50;;;;;;;-1.98;100.00;94124.25;5028282;28;20114;-75
2021/11/26 06:52:04;;;;;;;40.55;11.27;;;;;;;-1.98;100.00;94126.03;5029297;28;20058;-77
2021/11/26 06:54:29;;;;;;;39.40;10.95;;;;;;;-1.96;100.00;94122.19;5017132;28;20040;-75
2021/11/26 06:56:55;;;;;;;37.60;11.07;;;;;;;-1.94;100.00;94125.38;5033275;28;20045;-75
2021/11/26 06:59:20;;;;;;;41.88;12.30;;;;;;;-1.95;100.00;94123.78;5028001;28;20046;-75
2021/11/26 07:01:46;;;;;;;46.20;11.65;;;;;;;-1.73;100.00;94115.47;5005941;28;20049;-75
2021/11/26 07:04:12;;;;;;;38.78;10.98;;;;;;;-1.90;100.00;94117.16;5026751;28;20502;-74
2021/11/26 07:06:39;;;;;;;45.65;10.95;;;;;;;-1.86;100.00;94115.72;5007780;28;20053;-75
2021/11/26 07:09:05;;;;;;;37.70;10.63;;;;;;;-1.69;100.00;94116.59;5026788;28;20120;-74
2021/11/26 07:11:31;;;;;;;36.67;10.63;;;;;;;-2.03;100.00;94111.22;5004242;28;20065;-75
2021/11/26 07:13:56;;;;;;;36.53;9.95;;;;;;;-1.99;100.00;94116.72;5017738;28;20606;-76
2021/11/26 07:16:22;;;;;;;35.95;10.45;;;;;;;-1.94;100.00;94115.03;5025145;28;20091;-76
2021/11/26 07:18:48;;;;;;;31.27;9.80;;;;;;;-1.90;100.00;94112.00;5027729;28;20045;-76
2021/11/26 07:21:13;;;;;;;38.55;11.00;;;;;;;-1.87;100.00;94103.81;5026007;28;20041;-75
2021/11/26 07:23:39;;;;;;;36.60;10.48;;;;;;;-1.74;100.00;94108.72;5025380;28;20426;-76
2021/11/26 07:26:05;;;;;;;35.42;9.50;;;;;;;-1.70;100.00;94112.44;5025968;28;20633;-75
2021/11/26 07:28:31;;;;;;;33.50;10.10;;;;;;;-1.77;100.00;94109.19;5021896;28;20053;-76
2021/11/26 07:30:56;;;;;;;34.92;9.68;;;;;;;-1.86;100.00;94100.25;5025041;28;20054;-77
2021/11/26 07:33:23;;;;;;;36.85;10.05;;;;;;;-1.85;100.00;94096.63;5006039;28;20041;-74
2021/11/26 07:35:48;;;;;;;38.80;11.23;;;;;;;-1.97;100.00;94105.19;5006178;28;20038;-76
2021/11/26 07:38:14;;;;;;;37.35;9.57;;;;;;;-1.88;100.00;94107.41;5025685;28;20496;-74
2021/11/26 07:40:39;;;;;;;34.72;9.50;;;;;;;-1.82;100.00;94106.53;5025964;28;20045;-76
2021/11/26 07:43:06;;;;;;;46.78;11.75;;;;;;;-1.72;100.00;94105.94;5024706;28;20733;-73
2021/11/26 07:45:32;;;;;;;37.42;10.25;;;;;;;-1.55;100.00;94100.84;5024741;28;20045;-74
2021/11/26 07:47:58;;;;;;;31.02;9.80;;;;;;;-1.65;100.00;94106.59;5024148;28;20125;-74
2021/11/26 07:50:23;;;;;;;40.90;11.18;;;;;;;-1.69;100.00;94111.44;5026288;28;20513;-75
2021/11/26 07:52:49;;;;;;;37.28;9.68;;;;;;;-1.71;100.00;94113.47;5023773;28;20037;-75
2021/11/26 07:55:15;;;;;;;32.83;9.60;;;;;;;-1.49;100.00;94094.81;5024619;28;20051;-73
2021/11/26 07:57:42;;;;;;;32.50;10.27;;;;;;;-1.35;100.00;94100.47;5019670;28;20065;-74
2021/11/26 08:00:10;;;;;;;35.85;10.52;;;;;;;-1.37;100.00;94103.28;5003030;28;20132;-74
2021/11/26 08:02:35;;;;;;;33.15;10.15;;;;;;;-1.35;100.00;94096.09;5021376;28;20041;-75
2021/11/26 08:05:01;;;;;;;32.22;9.75;;;;;;;-1.35;100.00;94093.53;5020400;28;20168;-74
2021/11/26 08:07:27;;;;;;;41.88;10.98;;;;;;;-1.64;100.00;94085.75;5007536;28;20063;-74
2021/11/26 08:09:52;;;;;;;37.08;10.63;;;;;;;-1.69;100.00;94075.31;5024704;28;20422;-75
2021/11/26 08:12:19;;;;;;;44.30;11.82;;;;;;;-1.66;100.00;94068.94;5026118;28;20049;-75
2021/11/26 08:14:47;;;;;;;44.45;11.52;;;;;;;-1.47;100.00;94064.38;5024494;28;20057;-76
2021/11/26 08:17:12;;;;;;;40.75;12.38;;;;;;;-1.52;100.00;94059.91;5027872;28;20061;-74
2021/11/26 08:19:38;;;;;;;39.97;11.68;;;;;;;-1.59;100.00;94054.88;5008585;28;21037;-74
2021/11/26 08:22:03;;;;;;;40.50;12.00;;;;;;;-1.60;100.00;94048.13;5007086;28;20058;-75
2021/11/26 08:24:29;;;;;;;44.53;11.23;;;;;;;-1.60;100.00;94042.97;5026380;28;20049;-75
2021/11/26 08:26:55;;;;;;;33.50;9.95;;;;;;;-1.58;100.00;94029.84;5007315;28;20070;-75
2021/11/26 08:29:20;;;;;;;34.55;10.65;;;;;;;-1.53;100.00;94031.75;5025709;28;20049;-75
2021/11/26 08:31:46;;;;;;;33.38;10.90;;;;;;;-1.51;100.00;94034.88;5007259;28;20045;-74
2021/11/26 08:34:12;;;;;;;34.97;10.32;;;;;;;-1.59;100.00;94026.50;5005718;28;20042;-75
2021/11/26 08:36:38;;;;;;;42.83;11.25;;;;;;;-1.59;100.00;94023.16;5008981;28;20049;-75
2021/11/26 08:39:05;;;;;;;49.42;11.02;;;;;;;-1.53;100.00;94021.44;5026449;28;20034;-73
2021/11/26 08:41:31;;;;;;;37.90;10.20;;;;;;;-1.43;100.00;94021.63;5031609;28;20045;-73
2021/11/26 08:43:56;;;;;;;34.40;11.48;;;;;;;-1.34;100.00;94009.91;5025404;28;20052;-76
2021/11/26 08:46:22;;;;;;;35.65;11.30;;;;;;;-1.48;100.00;94019.75;5026035;28;22395;-76
2021/11/26 08:48:48;;;;;;;40.42;11.57;;;;;;;-1.50;100.00;94031.31;5006913;28;20515;-77
2021/11/26 08:51:14;;;;;;;45.55;11.20;;;;;;;-1.52;100.00;94028.16;5011641;28;20440;-77
2021/11/26 08:53:45;;;;;;;36.33;10.77;;;;;;;-1.60;100.00;94037.81;5028571;28;20048;-76
2021/11/26 08:56:12;;;;;;;52.92;14.55;;;;;;;-1.53;100.00;94044.66;5029943;28;20053;-74
2021/11/26 08:58:40;;;;;;;36.63;11.20;;;;;;;-1.51;100.00;94045.22;5012586;28;20103;-74
2021/11/26 09:01:07;;;;;;;46.03;11.43;;;;;;;-1.46;100.00;94047.91;5000958;28;20041;-73
2021/11/26 09:03:34;;;;;;;36.95;11.15;;;;;;;-1.26;100.00;94043.09;5029283;28;20502;-74
2021/11/26 09:06:01;;;;;;;43.92;11.15;;;;;;;-1.18;100.00;94049.66;5004066;28;20033;-74
2021/11/26 09:08:26;;;;;;;48.42;13.15;;;;;;;-1.43;100.00;94044.84;5029487;28;20037;-74
2021/11/26 09:10:52;;;;;;;52.80;13.40;;;;;;;-1.53;100.00;94047.25;5030586;28;20056;-73
2021/11/26 09:13:18;;;;;;;38.60;10.98;;;;;;;-1.43;100.00;94047.44;5029660;28;20046;-73
2021/11/26 09:15:45;;;;;;;44.55;13.40;;;;;;;-1.40;100.00;94046.97;5008782;28;20044;-74
2021/11/26 09:18:13;;;;;;;51.17;13.00;;;;;;;-1.48;100.00;94044.75;5027722;28;20049;-74
2021/11/26 09:20:39;;;;;;;43.30;12.27;;;;;;;-1.27;100.00;94038.16;5028284;28;20048;-74
2021/11/26 09:23:07;;;;;;;48.88;13.20;;;;;;;-1.42;100.00;94029.13;5028702;28;20041;-74
2021/11/26 09:25:33;;;;;;;46.42;12.98;;;;;;;-1.45;100.00;94028.78;5000545;28;20048;-74
2021/11/26 09:27:59;;;;;;;42.97;11.32;;;;;;;-1.32;100.00;94033.69;5025609;28;20041;-74
2021/11/26 09:30:27;;;;;;;43.85;12.40;;;;;;;-1.32;100.00;94018.22;5028211;28;20069;-74
2021/11/26 09:32:53;;;;;;;48.13;12.48;;;;;;;-1.33;100.00;94014.06;5008779;28;20049;-74
2021/11/26 09:35:20;;;;;;;46.55;12.45;;;;;;;-1.42;100.00;94008.50;5022655;28;20049;-74
2021/11/26 09:37:46;;;;;;;45.65;12.70;;;;;;;-1.43;100.00;94012.06;5009512;28;20046;-74
2021/11/26 09:40:13;;;;;;;49.13;13.15;;;;;;;-1.35;100.00;94003.19;5026965;28;20475;-73
2021/11/26 09:42:43;;;;;;;40.65;11.77;;;;;;;-1.34;100.00;93999.59;5029301;28;20034;-74
2021/11/26 09:45:12;;;;;;;40.05;11.02;;;;;;;-1.30;100.00;93995.53;5009408;28;20052;-75
2021/11/26 09:47:38;;;;;;;39.30;10.73;;;;;;;-1.31;100.00;93983.63;5010777;28;20041;-75
2021/11/26 09:50:04;;;;;;;44.63;11.32;;;;;;;-1.25;100.00;93985.31;5029703;28;20061;-75
2021/11/26 09:52:30;;;;;;;36.72;11.27;;;;;;;-1.15;100.00;93983.88;5029688;28;20062;-75
2021/11/26 09:54:56;;;;;;;37.47;10.20;;;;;;;-1.13;100.00;93979.28;5008350;28;20442;-74
2021/11/26 09:57:21;;;;;;;41.38;11.48;;;;;;;-1.02;100.00;93975.88;5009202;28;20049;-74
2021/11/26 09:59:47;;;;;;;38.55;11.30;;;;;;;-1.20;100.00;93970.91;5028777;28;20491;-74
2021/11/26 10:02:20;;;;;;;34.80;10.40;;;;;;;-1.28;100.00;93966.91;5009396;28;20045;-74
2021/11/26 10:05:13;;;;;;;37.92;11.15;;;;;;;-1.34;100.00;93963.44;5023717;28;20049;-74
2021/11/26 10:07:47;;;;;;;35.15;9.68;;;;;;;-1.22;100.00;93961.59;5025402;28;20049;-73
2021/11/26 10:10:21;;;;;;;37.03;10.82;;;;;;;-1.27;100.00;93969.25;5032021;28;20037;-74
2021/11/26 10:13:01;;;;;;;38.35;10.68;;;;;;;-1.19;100.00;93951.81;5026793;28;20045;-70
2021/11/26 10:15:33;;;;;;;34.83;10.13;;;;;;;-1.28;100.00;93941.09;5020453;28;20119;-72
2021/11/26 10:18:09;;;;;;;45.70;12.00;;;;;;;-1.38;100.00;93949.44;5028633;28;20045;-73
2021/11/26 10:20:36;;;;;;;40.92;10.45;;;;;;;-1.26;100.00;93939.84;5028251;28;20495;-74
2021/11/26 10:23:05;;;;;;;32.33;10.23;;;;;;;-1.18;100.00;93935.31;5026334;28;20631;-74
2021/11/26 10:25:30;;;;;;;36.58;9.52;;;;;;;-1.03;100.00;93927.81;5025523;28;20429;-73
2021/11/26 10:28:00;;;;;;;32.67;9.43;;;;;;;-0.97;100.00;93924.28;5007773;28;20041;-75
2021/11/26 10:30:28;;;;;;;36.13;10.60;;;;;;;-0.99;100.00;93916.00;5033423;28;20040;-75
2021/11/26 10:33:00;;;;;;;35.47;11.20;;;;;;;-1.11;100.00;93916.06;5028626;28;20037;-75
2021/11/26 10:35:37;;;;;;;40.15;11.05;;;;;;;-0.99;100.00;93913.41;5005505;28;20041;-75
2021/11/26 10:38:03;;;;;;;37.17;10.55;;;;;;;-0.91;100.00;93905.25;5006429;28;20048;-75
2021/11/26 10:40:32;;;;;;;32.67;9.23;;;;;;;-0.88;100.00;93897.06;5028945;28;20045;-77
2021/11/26 10:42:58;;;;;;;34.08;9.48;;;;;;;-0.79;100.00;93891.47;5005026;28;20042;-75
2021/11/26 10:48:20;;;;;;;31.35;9.18;;;;;;;-0.76;100.00;93893.56;5027038;28;20052;-75
2021/11/26 10:59:03;;;;;;;33.95;9.48;;;;;;;-0.90;100.00;93870.66;5023988;28;20033;-74
2021/11/26 11:01:30;;;;;;;28.77;9.43;;;;;;;-0.83;100.00;93869.72;5027738;28;20542;-74
2021/11/26 11:04:15;;;;;;;36.53;9.43;;;;;;;-0.78;100.00;93867.22;5026905;28;20093;-75
2021/11/26 11:06:41;;;;;;;30.52;9.35;;;;;;;-0.80;100.00;93861.50;5017562;28;20048;-72
2021/11/26 11:09:10;;;;;;;33.40;9.55;;;;;;;-0.85;100.00;93864.00;5027062;28;20047;-73
2021/11/26 11:11:47;;;;;;;27.67;9.25;;;;;;;-0.85;100.00;93861.44;5034574;28;20092;-73
2021/11/26 11:14:15;;;;;;;30.88;8.68;;;;;;;-0.79;100.00;93855.31;5023680;28;20041;-75
2021/11/26 11:16:54;;;;;;;28.75;8.75;;;;;;;-0.78;100.00;93846.53;5008938;28;20722;-74
2021/11/26 11:19:21;;;;;;;30.88;9.07;;;;;;;-0.76;100.00;93849.66;5027456;28;20037;-74
2021/11/26 11:21:49;;;;;;;26.95;8.40;;;;;;;-0.74;100.00;93839.88;5028023;28;20049;-75